createdAt,value
2023-05-08T00:01:55.546Z,102310.16
2023-05-08T00:04:23.679Z,102306.69
2023-05-08T00:06:53.064Z,102311.31
2023-05-08T00:09:21.343Z,102318.59
2023-05-08T00:11:49.515Z,102315.03
2023-05-08T00:14:17.573Z,102316.91
2023-05-08T00:16:45.795Z,102315.16
2023-05-08T00:19:15.268Z,102314.34
2023-05-08T00:21:43.371Z,102310.84
2023-05-08T00:24:11.405Z,102307.41
2023-05-08T00:26:39.478Z,102309.28
2023-05-08T00:29:07.536Z,102311.16
2023-05-08T00:31:35.636Z,102307.56
2023-05-08T00:34:03.760Z,102313.06
2023-05-08T00:36:33.380Z,102323.91
2023-05-08T00:39:01.533Z,102324.03
2023-05-08T00:41:29.624Z,102319.66
2023-05-08T00:43:57.707Z,102317.06
2023-05-08T00:46:25.898Z,102321.75
2023-05-08T00:48:54.395Z,102321.00
2023-05-08T00:51:23.085Z,102331.00
2023-05-08T00:53:52.544Z,102323.03
2023-05-08T00:56:21.626Z,102323.13
2023-05-08T00:58:49.910Z,102326.81
2023-05-08T01:01:18.131Z,102325.97
2023-05-08T01:03:46.421Z,102326.09
2023-05-08T01:06:14.598Z,102328.03
2023-05-08T01:08:45.032Z,102329.03
2023-05-08T01:11:19.097Z,102323.69
2023-05-08T01:13:53.253Z,102323.69
2023-05-08T01:16:28.721Z,102322.88
2023-05-08T01:19:02.510Z,102334.50
2023-05-08T01:21:35.730Z,102332.69
2023-05-08T01:24:24.658Z,102324.75
2023-05-08T01:27:13.912Z,102333.75
2023-05-08T01:30:31.949Z,102333.75
2023-05-08T01:33:08.355Z,102332.94
2023-05-08T01:35:44.224Z,102332.06
2023-05-08T01:38:20.457Z,102334.84
2023-05-08T01:40:53.766Z,102335.91
2023-05-08T01:43:26.658Z,102335.13
2023-05-08T01:45:56.195Z,102337.84
2023-05-08T01:48:29.074Z,102336.19
2023-05-08T01:51:02.459Z,102342.66
2023-05-08T01:53:33.120Z,102340.97
2023-05-08T01:56:04.667Z,102345.50
2023-05-08T01:58:34.019Z,102340.19
2023-05-08T02:01:03.008Z,102344.72
2023-05-08T02:03:34.300Z,102342.97
2023-05-08T02:06:03.207Z,102342.16
2023-05-08T02:08:32.986Z,102342.16
2023-05-08T02:11:01.917Z,102348.47
2023-05-08T02:13:31.293Z,102343.97
2023-05-08T02:16:00.615Z,102347.56
2023-05-08T02:18:29.326Z,102347.59
2023-05-08T02:21:01.297Z,102345.84
2023-05-08T02:23:29.702Z,102345.88
2023-05-08T02:25:58.482Z,102345.06
2023-05-08T02:28:27.517Z,102342.47
2023-05-08T02:30:56.113Z,102340.78
2023-05-08T02:33:25.131Z,102341.81
2023-05-08T02:35:55.077Z,102345.47
2023-05-08T02:38:24.989Z,102341.13
2023-05-08T02:40:57.424Z,102342.97
2023-05-08T02:43:25.604Z,102339.44
2023-05-08T02:46:00.319Z,102335.91
2023-05-08T02:48:34.474Z,102330.59
2023-05-08T02:51:10.409Z,102336.13
2023-05-08T02:53:51.871Z,102337.09
2023-05-08T02:56:23.057Z,102326.41
2023-05-08T02:58:59.043Z,102326.47
2023-05-08T03:01:30.270Z,102328.28
2023-05-08T03:04:02.952Z,102328.38
2023-05-08T03:06:32.807Z,102328.38
2023-05-08T03:09:02.844Z,102337.38
2023-05-08T03:11:38.027Z,102330.22
2023-05-08T03:14:07.551Z,102334.69
2023-05-08T03:16:37.833Z,102329.31
2023-05-08T03:19:11.523Z,102326.63
2023-05-08T03:21:40.256Z,102335.59
2023-05-08T03:24:10.737Z,102325.75
2023-05-08T03:26:38.938Z,102330.28
2023-05-08T03:29:07.321Z,102328.53
2023-05-08T03:31:36.402Z,102324.09
2023-05-08T03:34:05.677Z,102323.25
2023-05-08T03:36:33.790Z,102314.28
2023-05-08T03:39:01.949Z,102315.19
2023-05-08T03:41:31.873Z,102306.25
2023-05-08T03:44:00.348Z,102306.31
2023-05-08T03:46:28.507Z,102308.94
2023-05-08T03:48:56.974Z,102304.44
2023-05-08T03:51:25.455Z,102308.06
2023-05-08T03:53:53.524Z,102302.69
2023-05-08T03:56:23.107Z,102294.63
2023-05-08T03:59:01.725Z,102299.09
2023-05-08T04:01:39.975Z,102295.47
2023-05-08T04:04:11.461Z,102297.31
2023-05-08T04:06:50.202Z,102295.50
2023-05-08T04:09:21.580Z,102296.34
2023-05-08T04:11:58.111Z,102301.63
2023-05-08T04:14:31.045Z,102300.63
2023-05-08T04:17:10.915Z,102302.25
2023-05-08T04:19:44.253Z,102297.66
2023-05-08T04:22:13.781Z,102299.28
2023-05-08T04:24:44.472Z,102301.84
2023-05-08T04:27:13.915Z,102303.50
2023-05-08T04:29:43.709Z,102297.97
2023-05-08T04:32:12.322Z,102296.88
2023-05-08T04:34:40.716Z,102291.34
2023-05-08T04:37:09.041Z,102299.19
2023-05-08T04:39:37.109Z,102297.25
2023-05-08T04:42:05.603Z,102302.44
2023-05-08T04:44:33.691Z,102302.25
2023-05-08T04:47:03.127Z,102309.19
2023-05-08T04:49:31.389Z,102319.34
2023-05-08T04:51:59.440Z,102316.81
2023-05-08T04:54:27.574Z,102319.09
2023-05-08T04:56:55.673Z,102328.56
2023-05-08T04:59:25.025Z,102329.13
2023-05-08T05:01:53.158Z,102328.13
2023-05-08T05:04:22.929Z,102319.97
2023-05-08T05:06:50.979Z,102328.75
2023-05-08T05:09:19.037Z,102325.81
2023-05-08T05:11:47.092Z,102321.03
2023-05-08T05:14:15.163Z,102323.53
2023-05-08T05:16:43.346Z,102323.09
2023-05-08T05:19:11.944Z,102317.09
2023-05-08T05:21:41.687Z,102319.13
2023-05-08T05:24:10.112Z,102326.63
2023-05-08T05:26:38.354Z,102327.00
2023-05-08T05:29:06.507Z,102325.66
2023-05-08T05:31:34.684Z,102323.47
2023-05-08T05:34:02.788Z,102326.44
2023-05-08T05:36:30.850Z,102328.31
2023-05-08T05:39:00.278Z,102329.25
2023-05-08T05:41:28.335Z,102335.81
2023-05-08T05:43:56.408Z,102334.78
2023-05-08T05:46:28.085Z,102340.81
2023-05-08T05:48:56.216Z,102325.38
2023-05-08T05:51:24.308Z,102326.47
2023-05-08T05:53:52.566Z,102335.66
2023-05-08T05:56:23.249Z,102334.53
2023-05-08T05:58:51.751Z,102330.34
2023-05-08T06:01:19.893Z,102330.75
2023-05-08T06:03:48.419Z,102326.31
2023-05-08T06:06:16.558Z,102321.13
2023-05-08T06:08:44.636Z,102330.69
2023-05-08T06:11:12.931Z,102326.41
2023-05-08T06:13:43.930Z,102321.53
2023-05-08T06:16:12.020Z,102328.91
2023-05-08T06:18:40.228Z,102335.66
2023-05-08T06:21:08.418Z,102340.09
2023-05-08T06:23:36.637Z,102336.09
2023-05-08T06:26:05.008Z,102333.22
2023-05-08T06:28:33.086Z,102324.53
2023-05-08T06:31:02.545Z,102324.72
2023-05-08T06:33:31.429Z,102331.00
2023-05-08T06:35:59.521Z,102327.28
2023-05-08T06:38:27.582Z,102317.50
2023-05-08T06:40:55.732Z,102327.13
2023-05-08T06:43:23.941Z,102323.63
2023-05-08T06:45:53.077Z,102329.75
2023-05-08T06:48:22.700Z,102325.78
2023-05-08T06:50:52.533Z,102327.63
2023-05-08T06:53:20.625Z,102321.41
2023-05-08T06:55:48.744Z,102316.31
2023-05-08T06:58:16.874Z,102315.97
2023-05-08T07:00:44.954Z,102321.22
2023-05-08T07:03:13.225Z,102318.53
2023-05-08T07:05:42.753Z,102315.34
2023-05-08T07:08:10.809Z,102316.13
2023-05-08T07:10:38.864Z,102315.97
2023-05-08T07:13:06.966Z,102314.34
2023-05-08T07:15:35.282Z,102309.34
2023-05-08T07:18:03.445Z,102287.03
2023-05-08T07:20:32.071Z,102310.41
2023-05-08T07:23:01.554Z,102314.13
2023-05-08T07:25:29.626Z,102304.19
2023-05-08T07:27:59.246Z,102301.59
2023-05-08T07:30:29.205Z,102316.41
2023-05-08T07:32:57.549Z,102312.09
2023-05-08T07:35:25.902Z,102306.59
2023-05-08T07:37:53.977Z,102307.19
2023-05-08T07:40:23.493Z,102312.78
2023-05-08T07:42:51.615Z,102308.47
2023-05-08T07:45:19.694Z,102308.81
2023-05-08T07:47:51.825Z,102298.88
2023-05-08T07:50:20.258Z,102287.13
2023-05-08T07:52:50.091Z,102283.34
2023-05-08T07:55:19.214Z,102300.50
2023-05-08T07:57:48.665Z,102296.25
2023-05-08T08:00:17.449Z,102283.94
2023-05-08T08:02:46.323Z,102289.53
2023-05-08T08:05:14.732Z,102295.88
2023-05-08T08:07:43.023Z,102299.00
2023-05-08T08:10:11.667Z,102293.38
2023-05-08T08:12:39.756Z,102290.38
2023-05-08T08:15:10.375Z,102292.03
2023-05-08T08:17:38.706Z,102293.50
2023-05-08T08:20:08.051Z,102299.50
2023-05-08T08:22:38.305Z,102288.50
2023-05-08T08:25:06.938Z,102295.53
2023-05-08T08:27:34.997Z,102289.94
2023-05-08T08:30:16.202Z,102286.09
2023-05-08T08:32:47.340Z,102279.03
2023-05-08T08:35:15.736Z,102274.19
2023-05-08T08:37:44.109Z,102274.19
2023-05-08T08:40:12.814Z,102274.09
2023-05-08T08:42:40.979Z,102263.41
2023-05-08T08:45:10.251Z,102260.13
2023-05-08T08:47:39.780Z,102262.53
2023-05-08T08:50:12.000Z,102259.13
2023-05-08T08:52:47.350Z,102262.53
2023-05-08T08:55:17.558Z,102269.88
2023-05-08T08:57:53.961Z,102258.06
2023-05-08T09:00:23.717Z,102258.97
2023-05-08T09:02:52.429Z,102259.03
2023-05-08T09:05:23.493Z,102240.28
2023-05-08T09:07:55.393Z,102246.59
2023-05-08T09:10:24.777Z,102238.00
2023-05-08T09:12:53.117Z,102237.88
2023-05-08T09:15:21.315Z,102241.25
2023-05-08T09:17:49.643Z,102222.16
2023-05-08T09:20:17.823Z,102235.91
2023-05-08T09:22:48.228Z,102229.91
2023-05-08T09:25:16.551Z,102229.22
2023-05-08T09:27:44.687Z,102230.94
2023-05-08T09:30:14.421Z,102240.66
2023-05-08T09:32:43.842Z,102236.94
2023-05-08T09:35:13.696Z,102236.47
2023-05-08T09:37:43.053Z,102237.41
2023-05-08T09:40:17.381Z,102244.84
2023-05-08T09:42:45.694Z,102236.41
2023-05-08T09:45:26.680Z,102236.22
2023-05-08T09:47:54.829Z,102240.25
2023-05-08T09:50:22.972Z,102242.66
2023-05-08T09:52:51.543Z,102239.00
2023-05-08T09:55:21.136Z,102237.81
2023-05-08T09:57:57.875Z,102228.59
2023-05-08T10:00:26.985Z,102231.31
2023-05-08T10:02:56.498Z,102225.13
2023-05-08T10:05:25.849Z,102225.47
2023-05-08T10:07:54.213Z,102220.38
2023-05-08T10:10:27.828Z,102219.44
2023-05-08T10:12:56.853Z,102220.13
2023-05-08T10:15:26.378Z,102212.78
2023-05-08T10:17:59.979Z,102211.84
2023-05-08T10:20:30.337Z,102209.34
2023-05-08T10:22:59.020Z,102208.22
2023-05-08T10:25:32.867Z,102207.38
2023-05-08T10:28:08.231Z,102208.84
2023-05-08T10:30:39.282Z,102202.25
2023-05-08T10:33:11.033Z,102197.88
2023-05-08T10:35:39.246Z,102210.34
2023-05-08T10:38:09.557Z,102197.16
2023-05-08T10:40:39.332Z,102206.09
2023-05-08T10:43:08.158Z,102187.69
2023-05-08T10:45:36.575Z,102189.59
2023-05-08T10:48:10.105Z,102182.84
2023-05-08T10:50:52.364Z,102186.19
2023-05-08T10:53:23.593Z,102185.38
2023-05-08T10:55:53.813Z,102192.31
2023-05-08T10:58:32.336Z,102170.72
2023-05-08T11:01:16.983Z,102175.94
2023-05-08T11:03:50.657Z,102181.09
2023-05-08T11:06:19.999Z,102172.63
2023-05-08T11:08:50.524Z,102175.66
2023-05-08T11:11:25.178Z,102178.38
2023-05-08T11:13:56.351Z,102179.69
2023-05-08T11:17:01.865Z,102173.16
2023-05-08T11:19:30.442Z,102177.94
2023-05-08T11:22:25.810Z,102184.28
2023-05-08T11:24:59.200Z,102179.63
2023-05-08T11:27:42.749Z,102171.97
2023-05-08T11:30:21.421Z,102176.50
2023-05-08T11:33:25.757Z,102165.38
2023-05-08T11:35:56.580Z,102168.94
2023-05-08T11:38:35.957Z,102146.84
2023-05-08T11:41:06.451Z,102146.56
2023-05-08T11:43:56.040Z,102151.19
2023-05-08T11:46:24.236Z,102154.28
2023-05-08T11:48:59.954Z,102150.34
2023-05-08T11:51:32.569Z,102137.31
2023-05-08T11:54:01.528Z,102136.50
2023-05-08T11:56:29.766Z,102148.31
2023-05-08T11:59:06.576Z,102147.13
2023-05-08T12:01:34.656Z,102139.34
2023-05-08T12:04:05.207Z,102141.69
2023-05-08T12:06:34.366Z,102138.81
2023-05-08T12:09:04.763Z,102136.91
2023-05-08T12:11:32.924Z,102131.16
2023-05-08T12:14:00.971Z,102135.66
2023-05-08T12:16:30.498Z,102141.13
2023-05-08T12:18:58.758Z,102127.94
2023-05-08T12:21:28.020Z,102133.94
2023-05-08T12:23:56.402Z,102131.72
2023-05-08T12:26:24.521Z,102123.66
2023-05-08T12:28:56.074Z,102119.28
2023-05-08T12:31:24.733Z,102128.63
2023-05-08T12:33:55.402Z,102127.81
2023-05-08T12:36:23.508Z,102125.31
2023-05-08T12:38:52.170Z,102124.88
2023-05-08T12:41:24.929Z,102123.13
2023-05-08T12:43:53.047Z,102117.63
2023-05-08T12:46:22.311Z,102117.03
2023-05-08T12:48:50.524Z,102113.97
2023-05-08T12:51:20.013Z,102128.84
2023-05-08T12:53:48.087Z,102113.50
2023-05-08T12:56:23.112Z,102117.53
2023-05-08T12:58:51.236Z,102114.56
2023-05-08T13:01:19.393Z,102108.00
2023-05-08T13:04:01.542Z,102107.72
2023-05-08T13:06:32.776Z,102098.47
2023-05-08T13:09:00.903Z,102086.28
2023-05-08T13:11:33.520Z,102084.50
2023-05-08T13:14:01.705Z,102076.53
2023-05-08T13:16:29.866Z,102081.03
2023-05-08T13:18:57.996Z,102069.22
2023-05-08T13:21:27.950Z,102078.41
2023-05-08T13:23:57.749Z,102062.47
2023-05-08T13:26:26.319Z,102063.00
2023-05-08T13:28:56.456Z,102066.34
2023-05-08T13:31:24.907Z,102069.97
2023-05-08T13:33:53.075Z,102066.41
2023-05-08T13:36:21.482Z,102062.38
2023-05-08T13:38:51.328Z,102072.41
2023-05-08T13:41:20.863Z,102073.75
2023-05-08T13:43:48.987Z,102068.31
2023-05-08T13:46:17.144Z,102082.34
2023-05-08T13:48:45.238Z,102077.38
2023-05-08T13:51:13.345Z,102079.78
2023-05-08T13:53:41.391Z,102081.06
2023-05-08T13:56:09.578Z,102079.69
2023-05-08T13:58:40.247Z,102067.78
2023-05-08T14:01:24.912Z,102071.56
2023-05-08T14:03:55.040Z,102058.59
2023-05-08T14:06:23.526Z,102055.94
2023-05-08T14:08:54.204Z,102050.22
2023-05-08T14:11:23.699Z,102048.19
2023-05-08T14:13:53.153Z,102053.09
2023-05-08T14:16:21.402Z,102050.03
2023-05-08T14:18:49.657Z,102051.56
2023-05-08T14:21:17.764Z,102043.97
2023-05-08T14:23:45.842Z,102040.00
2023-05-08T14:26:13.981Z,102035.09
2023-05-08T14:28:42.069Z,102027.84
2023-05-08T14:31:11.668Z,102028.91
2023-05-08T14:33:39.904Z,102037.19
2023-05-08T14:36:08.870Z,102034.81
2023-05-08T14:38:36.991Z,102030.59
2023-05-08T14:41:05.202Z,102032.63
2023-05-08T14:43:33.431Z,102026.19
2023-05-08T14:46:01.657Z,102015.63
2023-05-08T14:48:31.250Z,102026.81
2023-05-08T14:50:59.329Z,102027.59
2023-05-08T14:53:27.690Z,102022.97
2023-05-08T14:55:56.124Z,102017.00
2023-05-08T14:58:24.424Z,102014.50
2023-05-08T15:00:52.548Z,102009.78
2023-05-08T15:03:20.701Z,101989.84
2023-05-08T15:05:50.437Z,101993.72
2023-05-08T15:08:18.580Z,101992.50
2023-05-08T15:10:46.639Z,101987.81
2023-05-08T15:13:14.772Z,101984.59
2023-05-08T15:15:42.902Z,101977.22
2023-05-08T15:18:11.032Z,101978.75
2023-05-08T15:20:39.160Z,101982.72
2023-05-08T15:23:08.678Z,101982.38
2023-05-08T15:25:36.772Z,101979.13
2023-05-08T15:28:04.966Z,101977.53
2023-05-08T15:30:33.104Z,101980.41
2023-05-08T15:33:01.264Z,101983.41
2023-05-08T15:35:29.395Z,101985.63
2023-05-08T15:37:57.462Z,101969.50
2023-05-08T15:40:26.884Z,101967.16
2023-05-08T15:42:55.000Z,101967.28
2023-05-08T15:45:23.350Z,101968.00
2023-05-08T15:47:51.827Z,101966.88
2023-05-08T15:50:19.963Z,101966.00
2023-05-08T15:52:48.014Z,101982.56
2023-05-08T15:55:17.571Z,101978.09
2023-05-08T15:57:47.229Z,101974.63
2023-05-08T16:00:16.202Z,101971.97
2023-05-08T16:02:44.470Z,101965.53
2023-05-08T16:05:12.858Z,101973.75
2023-05-08T16:07:41.156Z,101979.44
2023-05-08T16:10:10.546Z,101977.84
2023-05-08T16:12:38.714Z,101977.84
2023-05-08T16:15:08.992Z,101976.97
2023-05-08T16:17:37.112Z,101976.09
2023-05-08T16:20:05.708Z,101970.91
2023-05-08T16:22:33.800Z,101972.78
2023-05-08T16:25:01.925Z,101974.13
2023-05-08T16:27:30.045Z,101976.50
2023-05-08T16:29:58.140Z,101979.97
2023-05-08T16:32:27.996Z,101968.50
2023-05-08T16:34:56.159Z,101965.00
2023-05-08T16:37:24.212Z,101958.03
2023-05-08T16:39:52.351Z,101950.03
2023-05-08T16:42:20.912Z,101950.13
2023-05-08T16:44:49.086Z,101944.13
2023-05-08T16:47:17.396Z,101944.00
2023-05-08T16:49:46.837Z,101945.97
2023-05-08T16:52:14.953Z,101940.44
2023-05-08T16:54:43.024Z,101940.47
2023-05-08T16:57:11.171Z,101937.88
2023-05-08T16:59:39.257Z,101940.50
2023-05-08T17:02:07.959Z,101938.66
2023-05-08T17:04:36.311Z,101938.44
2023-05-08T17:07:06.112Z,101942.78
2023-05-08T17:09:34.995Z,101940.75
2023-05-08T17:12:03.840Z,101949.13
2023-05-08T17:14:31.955Z,101942.66
2023-05-08T17:17:00.092Z,101956.25
2023-05-08T17:19:28.457Z,101947.75
2023-05-08T17:21:58.884Z,101948.28
2023-05-08T17:24:30.343Z,101938.09
2023-05-08T17:26:58.483Z,101939.59
2023-05-08T17:29:26.652Z,101947.41
2023-05-08T17:31:54.799Z,101946.94
2023-05-08T17:34:23.582Z,101949.66
2023-05-08T17:36:53.372Z,101945.66
2023-05-08T17:39:22.941Z,101938.22
2023-05-08T17:41:52.741Z,101941.44
2023-05-08T17:44:20.871Z,101943.31
2023-05-08T17:46:49.074Z,101940.44
2023-05-08T17:49:19.238Z,101945.91
2023-05-08T17:51:47.721Z,101944.06
2023-05-08T17:54:15.858Z,101950.88
2023-05-08T17:56:44.065Z,101943.06
2023-05-08T17:59:13.549Z,101941.31
2023-05-08T18:01:41.694Z,101946.00
2023-05-08T18:04:09.882Z,101947.94
2023-05-08T18:06:37.966Z,101949.88
2023-05-08T18:09:06.473Z,101947.13
2023-05-08T18:11:34.568Z,101942.47
2023-05-08T18:14:02.718Z,101952.34
2023-05-08T18:16:32.722Z,101949.38
2023-05-08T18:19:00.811Z,101949.69
2023-05-08T18:21:29.009Z,101959.34
2023-05-08T18:23:57.078Z,101956.19
2023-05-08T18:26:25.155Z,101951.47
2023-05-08T18:28:53.320Z,101943.72
2023-05-08T18:31:21.436Z,101944.38
2023-05-08T18:33:50.887Z,101947.91
2023-05-08T18:36:18.980Z,101942.50
2023-05-08T18:38:47.128Z,101946.00
2023-05-08T18:41:15.204Z,101944.91
2023-05-08T18:43:43.291Z,101951.69
2023-05-08T18:46:12.407Z,101962.28
2023-05-08T18:48:40.951Z,101963.69
2023-05-08T18:51:10.696Z,101968.16
2023-05-08T18:53:39.353Z,101973.41
2023-05-08T18:56:07.532Z,101974.78
2023-05-08T18:58:35.597Z,101974.22
2023-05-08T19:01:03.789Z,101966.69
2023-05-08T19:03:32.001Z,101962.63
2023-05-08T19:06:00.144Z,101956.75
2023-05-08T19:08:29.613Z,101954.66
2023-05-08T19:10:57.675Z,101961.63
2023-05-08T19:13:25.950Z,101964.09
2023-05-08T19:15:54.529Z,101963.63
2023-05-08T19:18:22.744Z,101962.31
2023-05-08T19:20:50.844Z,101959.09
2023-05-08T19:23:18.908Z,101963.13
2023-05-08T19:25:48.424Z,101971.47
2023-05-08T19:28:16.504Z,101970.81
2023-05-08T19:30:44.607Z,101980.03
2023-05-08T19:33:12.750Z,101978.31
2023-05-08T19:35:40.880Z,101978.41
2023-05-08T19:38:08.988Z,101975.03
2023-05-08T19:40:44.722Z,101980.75
2023-05-08T19:43:21.755Z,101984.66
2023-05-08T19:45:49.882Z,101986.78
2023-05-08T19:48:19.590Z,101985.31
2023-05-08T19:50:47.888Z,101985.91
2023-05-08T19:53:16.036Z,101986.50
2023-05-08T19:55:44.129Z,101987.97
2023-05-08T19:58:12.288Z,101985.72
2023-05-08T20:00:41.816Z,101982.63
2023-05-08T20:03:10.055Z,101982.25
2023-05-08T20:05:38.144Z,101982.72
2023-05-08T20:08:06.477Z,101980.38
2023-05-08T20:10:34.566Z,101995.41
2023-05-08T20:13:02.826Z,101980.56
2023-05-08T20:15:32.893Z,101989.16
2023-05-08T20:18:02.702Z,101986.91
2023-05-08T20:20:32.048Z,101985.56
2023-05-08T20:23:00.186Z,101982.22
2023-05-08T20:25:28.371Z,101974.44
2023-05-08T20:27:56.468Z,101972.94
2023-05-08T20:30:24.617Z,101978.56
2023-05-08T20:32:52.817Z,101973.44
2023-05-08T20:35:22.398Z,101973.63
2023-05-08T20:37:50.491Z,101964.66
2023-05-08T20:40:18.612Z,101966.50
2023-05-08T20:42:46.695Z,101963.78
2023-05-08T20:45:14.974Z,101960.31
2023-05-08T20:47:43.174Z,101965.06
2023-05-08T20:50:11.793Z,101963.59
2023-05-08T20:52:42.562Z,101965.59
2023-05-08T20:55:11.305Z,101960.34
2023-05-08T20:57:39.480Z,101961.31
2023-05-08T21:00:09.019Z,101963.16
2023-05-08T21:02:38.765Z,101958.69
2023-05-08T21:05:08.017Z,101963.16
2023-05-08T21:07:36.183Z,101962.38
2023-05-08T21:10:06.605Z,101960.72
2023-05-08T21:12:34.790Z,101960.78
2023-05-08T21:15:03.271Z,101956.34
2023-05-08T21:17:31.452Z,101949.34
2023-05-08T21:19:59.551Z,101946.94
2023-05-08T21:22:27.638Z,101950.75
2023-05-08T21:24:55.847Z,101942.91
2023-05-08T21:27:25.951Z,101950.34
2023-05-08T21:29:54.121Z,101943.44
2023-05-08T21:32:22.352Z,101946.50
2023-05-08T21:34:50.522Z,101936.78
2023-05-08T21:37:18.611Z,101931.44
2023-05-08T21:39:46.749Z,101937.94
2023-05-08T21:42:14.852Z,101932.69
2023-05-08T21:44:44.677Z,101932.69
2023-05-08T21:47:13.488Z,101935.50
2023-05-08T21:49:41.621Z,101932.06
2023-05-08T21:52:09.735Z,101936.78
2023-05-08T21:54:37.852Z,101931.56
2023-05-08T21:57:07.458Z,101926.22
2023-05-08T21:59:35.591Z,101934.53
2023-05-08T22:02:05.163Z,101915.72
2023-05-08T22:04:33.384Z,101923.06
2023-05-08T22:07:01.504Z,101925.00
2023-05-08T22:09:29.619Z,101917.84
2023-05-08T22:11:57.699Z,101911.63
2023-05-08T22:14:25.810Z,101919.84
2023-05-08T22:16:54.082Z,101916.34
2023-05-08T22:19:23.531Z,101908.38
2023-05-08T22:21:51.660Z,101910.28
2023-05-08T22:24:20.188Z,101900.50
2023-05-08T22:26:48.284Z,101897.97
2023-05-08T22:29:16.964Z,101893.50
2023-05-08T22:31:45.394Z,101896.28
2023-05-08T22:34:13.652Z,101892.69
2023-05-08T22:36:43.108Z,101889.31
2023-05-08T22:39:11.685Z,101893.84
2023-05-08T22:41:39.937Z,101892.09
2023-05-08T22:44:08.119Z,101886.84
2023-05-08T22:46:36.874Z,101891.41
2023-05-08T22:49:05.954Z,101885.13
2023-05-08T22:51:34.167Z,101882.41
2023-05-08T22:54:03.692Z,101878.84
2023-05-08T22:56:31.937Z,101880.66
2023-05-08T22:59:00.127Z,101885.19
2023-05-08T23:01:28.295Z,101881.63
2023-05-08T23:03:56.607Z,101877.13
2023-05-08T23:06:25.107Z,101875.47
2023-05-08T23:08:53.221Z,101870.94
2023-05-08T23:11:22.805Z,101863.78
2023-05-08T23:13:50.907Z,101869.38
2023-05-08T23:16:19.116Z,101874.00
2023-05-08T23:18:47.392Z,101872.19
2023-05-08T23:21:15.544Z,101870.44
2023-05-08T23:23:43.688Z,101865.97
2023-05-08T23:26:11.824Z,101859.59
2023-05-08T23:28:41.280Z,101858.72
2023-05-08T23:31:09.481Z,101857.94
2023-05-08T23:33:37.643Z,101858.91
2023-05-08T23:36:06.474Z,101862.53
2023-05-08T23:38:34.603Z,101863.34
2023-05-08T23:41:02.714Z,101867.03
2023-05-08T23:43:31.298Z,101860.78
2023-05-08T23:46:00.881Z,101861.75
2023-05-08T23:48:29.003Z,101860.88
2023-05-08T23:50:57.140Z,101852.06
2023-05-08T23:53:25.489Z,101855.03
2023-05-08T23:55:53.658Z,101857.81
2023-05-08T23:58:21.908Z,101853.34
